Time;durP1;ratioP1;P1;durP2;ratioP2;P2;SDS_P1;SDS_P2;PMS_P1;PMS_P2;Temp;Humidity;BMP_temperature;BMP_pressure;BME280_temperature;BME280_humidity;BME280_pressure;Samples;Min_cycle;Max_cycle;Signal;HPM_P1;HPM_P2
2022/01/18 00:01:29;;;;;;;6.97;2.40;;;;;;;-149.78;70.36;50498.81;5066802;28;20077;-62
2022/01/18 00:03:55;;;;;;;13.38;4.20;;;;;;;-149.78;71.04;50498.81;5066636;28;20032;-62
2022/01/18 00:06:22;;;;;;;6.78;2.53;;;;;;;-149.78;70.57;50514.47;5066553;28;20035;-62
2022/01/18 00:08:48;;;;;;;25.92;8.02;;;;;;;-149.78;69.33;50498.81;5068528;28;20033;-61
2022/01/18 00:11:17;;;;;;;23.08;7.07;;;;;;;-149.78;69.81;50498.81;5073912;28;20056;-62
2022/01/18 00:13:46;;;;;;;28.75;9.32;;;;;;;-149.78;69.77;50485.13;5065247;28;20052;-62
2022/01/18 00:16:28;;;;;;;11.55;4.57;;;;;;;-149.78;68.39;50455.81;5031783;28;20474;-62
2022/01/18 00:18:55;;;;;;;7.15;3.17;;;;;;;-149.78;69.57;50457.75;5063154;28;20028;-61
2022/01/18 00:22:12;;;;;;;4.70;2.20;;;;;;;-149.78;68.22;50479.28;5064466;28;20077;-62
2022/01/18 00:24:08;;;;;;;4.07;2.05;;;;;;;-149.78;66.87;50504.69;5049274;28;20059;-62
2022/01/18 00:26:34;;;;;;;3.22;1.88;;;;;;;-149.78;65.88;50467.53;5064706;28;20438;-62
2022/01/18 00:29:07;;;;;;;4.82;1.30;;;;;;;-149.78;65.00;50475.34;5064357;28;20036;-62
2022/01/18 00:34:10;;;;;;;1.85;0.70;;;;;;;-149.78;64.47;50479.28;5064365;28;20075;-62
2022/01/18 00:36:52;;;;;;;0.88;0.75;;;;;;;-149.78;64.80;50487.09;5064650;28;20063;-61
2022/01/18 00:39:17;;;;;;;1.55;0.90;;;;;;;-149.78;64.78;50506.66;5065118;28;20115;-62
2022/01/18 00:41:43;;;;;;;1.35;0.80;;;;;;;-149.78;64.40;50473.41;5064320;28;20131;-62
2022/01/18 00:44:10;;;;;;;3.30;0.88;;;;;;;-149.78;63.94;50512.50;5064806;28;20546;-62
2022/01/18 00:46:38;;;;;;;1.33;0.75;;;;;;;-149.78;64.59;50459.72;5065229;28;20047;-62
2022/01/18 00:49:04;;;;;;;2.47;0.80;;;;;;;-149.78;66.35;50494.91;5047815;28;20028;-62
2022/01/18 00:51:38;;;;;;;3.22;0.70;;;;;;;-149.78;66.45;50471.44;5064708;28;20020;-62
2022/01/18 00:54:06;;;;;;;1.80;0.90;;;;;;;-149.78;68.73;50447.97;5046663;28;20024;-62
2022/01/18 00:56:32;;;;;;;2.67;1.25;;;;;;;-149.78;68.70;50498.81;5064727;28;20105;-62
2022/01/18 00:59:00;;;;;;;1.65;0.80;;;;;;;-149.78;68.60;50496.88;5060953;28;20052;-62
2022/01/18 01:01:30;;;;;;;4.70;0.90;;;;;;;-149.78;70.37;50494.91;5063981;28;20197;-62
2022/01/18 01:04:00;;;;;;;2.13;0.80;;;;;;;-149.78;75.29;50471.44;5064140;28;20036;-62
2022/01/18 01:06:26;;;;;;;4.75;1.15;;;;;;;-149.78;74.44;50514.47;5064918;28;20483;-62
2022/01/18 01:08:52;;;;;;;3.17;1.17;;;;;;;-149.78;76.93;50494.91;5063690;28;20041;-62
2022/01/18 01:11:19;;;;;;;1.13;0.75;;;;;;;-149.78;76.35;50526.22;5063440;28;20517;-62
2022/01/18 01:13:48;;;;;;;1.63;0.88;;;;;;;-149.78;77.62;50502.75;5063079;28;20483;-62
2022/01/18 01:19:10;;;;;;;3.92;1.52;;;;;;;-149.78;82.20;50514.47;5063675;28;20028;-62
2022/01/18 01:35:49;;;;;;;2.65;1.02;;;;;;;-149.78;83.68;50498.81;4992985;28;20173;-62
2022/01/18 01:44:01;;;;;;;1.48;1.00;;;;;;;-149.78;83.71;50518.38;5064859;28;20114;-61
2022/01/18 01:46:28;;;;;;;1.58;1.20;;;;;;;-149.78;78.31;50498.81;5064418;28;20028;-62
2022/01/18 01:48:56;;;;;;;1.92;0.93;;;;;;;-149.78;76.93;50494.91;5063818;28;20492;-62
2022/01/18 01:51:29;;;;;;;2.97;1.05;;;;;;;-149.78;74.28;50491.00;5063559;28;20028;-62
2022/01/18 01:53:56;;;;;;;2.17;0.90;;;;;;;-149.78;72.96;50479.28;5051751;28;20040;-62
2022/01/18 01:56:22;;;;;;;2.53;0.98;;;;;;;-149.78;74.73;50502.75;5050686;28;20434;-62
2022/01/18 01:58:48;;;;;;;3.03;1.15;;;;;;;-149.78;73.21;50487.09;5068026;28;20040;-62
2022/01/18 02:01:14;;;;;;;1.33;0.80;;;;;;;-149.78;72.58;50526.22;5068343;28;20034;-62
2022/01/18 02:03:39;;;;;;;1.85;1.10;;;;;;;-149.78;71.14;50498.81;5068425;28;20369;-62
2022/01/18 02:06:05;;;;;;;2.53;1.20;;;;;;;-149.78;71.36;50471.44;5068393;28;20043;-62
2022/01/18 02:08:31;;;;;;;2.63;0.73;;;;;;;-149.78;70.69;50479.28;5069184;28;20055;-62
2022/01/18 02:11:00;;;;;;;3.03;1.13;;;;;;;-149.78;71.94;50487.09;5068207;28;20647;-62
2022/01/18 02:13:27;;;;;;;3.15;0.80;;;;;;;-149.78;71.93;50492.97;5068041;28;20047;-62
2022/01/18 02:23:56;;;;;;;1.23;0.90;;;;;;;-149.78;82.92;50522.28;5067784;28;20035;-62
2022/01/18 02:26:22;;;;;;;3.10;0.90;;;;;;;-149.78;78.92;50502.75;5067187;28;20033;-62
2022/01/18 02:28:50;;;;;;;1.17;0.80;;;;;;;-149.78;78.75;50498.81;5068560;28;20115;-62
2022/01/18 02:31:20;;;;;;;1.63;0.80;;;;;;;-149.78;76.60;50510.56;5067598;28;20119;-62
2022/01/18 02:33:46;;;;;;;2.25;0.98;;;;;;;-149.78;79.07;50494.91;5067234;28;20072;-62
2022/01/18 02:36:12;;;;;;;2.53;0.73;;;;;;;-149.78;78.77;50475.34;5067405;28;20060;-62
2022/01/18 02:38:37;;;;;;;1.77;0.77;;;;;;;-149.78;74.67;50537.94;5067539;28;20432;-62
2022/01/18 02:41:03;;;;;;;1.63;0.68;;;;;;;-149.78;73.90;50506.66;5067591;28;20043;-62
2022/01/18 02:43:50;;;;;;;2.03;0.90;;;;;;;-149.78;74.09;50494.91;5065088;28;20103;-63
2022/01/18 02:46:15;;;;;;;1.02;0.82;;;;;;;-149.78;75.01;50479.28;5049295;28;20059;-62
2022/01/18 02:48:41;;;;;;;1.30;0.85;;;;;;;-149.78;76.08;50471.44;5067681;28;20064;-63
2022/01/18 02:51:07;;;;;;;1.05;0.73;;;;;;;-149.78;95.08;50514.47;5067043;28;20075;-62
2022/01/18 02:53:53;;;;;;;2.38;1.00;;;;;;;-149.78;100.00;50498.81;5068194;28;20037;-63
2022/01/18 02:56:19;;;;;;;2.33;1.05;;;;;;;-149.78;100.00;50492.97;5066556;28;20089;-62
2022/01/18 02:58:44;;;;;;;8.38;2.47;;;;;;;-149.78;100.00;50502.75;5067917;28;20033;-62
2022/01/18 03:03:54;;;;;;;4.45;2.10;;;;;;;-149.78;100.00;50530.13;5066602;28;20109;-62
2022/01/18 03:06:20;;;;;;;4.05;2.00;;;;;;;-149.78;100.00;50522.28;5067226;28;20032;-62
2022/01/18 03:08:46;;;;;;;4.55;2.10;;;;;;;-149.78;100.00;50535.97;5049245;28;20047;-62
2022/01/18 03:11:12;;;;;;;5.03;2.20;;;;;;;-149.78;100.00;50545.75;5068079;28;20028;-63
2022/01/18 03:13:37;;;;;;;4.05;2.00;;;;;;;-149.78;100.00;50537.94;5049544;28;20041;-62
2022/01/18 03:16:04;;;;;;;4.13;2.25;;;;;;;-149.78;100.00;50545.75;5067407;28;20092;-62
2022/01/18 03:18:30;;;;;;;3.97;2.17;;;;;;;-149.78;100.00;50520.34;5066562;28;20115;-62
2022/01/18 03:20:56;;;;;;;3.85;2.05;;;;;;;-149.78;100.00;50553.59;5066048;28;20039;-62
2022/01/18 03:23:23;;;;;;;6.50;2.22;;;;;;;-149.78;100.00;50524.25;5066378;28;20119;-62
2022/01/18 03:25:57;;;;;;;6.70;1.85;;;;;;;-149.78;100.00;50502.75;5048343;28;20140;-62
2022/01/18 03:28:24;;;;;;;2.92;1.55;;;;;;;-149.78;100.00;50565.31;5066628;28;20119;-62
2022/01/18 03:30:54;;;;;;;3.50;1.80;;;;;;;-149.78;100.00;50545.75;5065730;28;20086;-62
2022/01/18 03:33:22;;;;;;;4.80;1.60;;;;;;;-149.78;100.00;50561.41;5066939;28;20062;-62
2022/01/18 03:35:50;;;;;;;4.85;1.60;;;;;;;-149.78;100.00;50534.03;5066267;28;20345;-62
2022/01/18 03:38:18;;;;;;;2.78;1.42;;;;;;;-149.78;100.00;50549.69;5066247;28;20050;-62
2022/01/18 03:40:43;;;;;;;2.50;1.52;;;;;;;-149.78;100.00;50584.88;5065203;28;20140;-62
2022/01/18 03:43:12;;;;;;;1.90;1.25;;;;;;;-149.78;100.00;50584.88;5066196;28;20021;-62
2022/01/18 03:45:43;;;;;;;4.78;1.48;;;;;;;-149.78;100.00;50553.59;5065778;28;20046;-62
2022/01/18 03:48:23;;;;;;;1.88;1.13;;;;;;;-149.78;100.00;50569.22;5047560;28;20042;-62
2022/01/18 03:50:49;;;;;;;2.85;1.30;;;;;;;-149.78;100.00;50530.13;5065960;28;20037;-62
2022/01/18 03:53:15;;;;;;;3.42;1.38;;;;;;;-149.78;100.00;50553.59;5064649;28;20052;-62
2022/01/18 03:55:41;;;;;;;2.60;1.30;;;;;;;-149.78;100.00;50600.53;5065780;28;20036;-62
2022/01/18 03:58:06;;;;;;;2.33;1.00;;;;;;;-149.78;100.00;50549.69;5066228;28;20029;-62
2022/01/18 04:00:32;;;;;;;1.15;0.70;;;;;;;-149.78;100.00;50565.31;5066002;28;20043;-62
2022/01/18 04:02:59;;;;;;;2.17;1.30;;;;;;;-149.78;100.00;50565.31;5065939;28;20036;-62
2022/01/18 04:05:25;;;;;;;2.92;1.00;;;;;;;-149.78;100.00;50537.94;5065406;28;20032;-62
2022/01/18 04:07:51;;;;;;;2.63;0.95;;;;;;;-149.78;100.00;50575.09;5067297;28;20048;-62
2022/01/18 04:10:17;;;;;;;1.80;0.82;;;;;;;-149.78;100.00;50537.94;5065853;28;20033;-62
2022/01/18 04:12:43;;;;;;;2.65;0.85;;;;;;;-149.78;100.00;50588.78;5065637;28;20033;-62
2022/01/18 04:15:11;;;;;;;1.05;0.70;;;;;;;-149.78;100.00;50580.97;5065411;28;20065;-62
2022/01/18 04:26:05;;;;;;;1.52;0.77;;;;;;;-149.78;100.00;50543.81;4983287;28;20057;-62
2022/01/18 04:31:05;;;;;;;1.88;0.70;;;;;;;-149.78;100.00;50526.22;5064876;28;20124;-62
2022/01/18 04:33:31;;;;;;;5.57;0.77;;;;;;;-149.78;100.00;50561.41;5064844;28;20056;-62
2022/01/18 04:35:57;;;;;;;4.13;0.75;;;;;;;-149.78;100.00;50569.22;5065503;28;20663;-62
2022/01/18 04:38:23;;;;;;;2.90;0.82;;;;;;;-149.78;100.00;50500.78;5065114;28;20036;-62
2022/01/18 04:40:49;;;;;;;1.20;0.80;;;;;;;-149.78;100.00;50541.84;5064933;28;20059;-62
2022/01/18 04:51:03;;;;;;;1.88;0.90;;;;;;;-149.78;100.00;50537.94;5065270;28;20127;-62
2022/01/18 04:53:31;;;;;;;1.65;0.95;;;;;;;-149.78;100.00;50510.56;5064455;28;20094;-62
2022/01/18 04:56:05;;;;;;;2.78;0.80;;;;;;;-149.78;100.00;50573.16;5064454;28;20036;-62
2022/01/18 04:58:31;;;;;;;2.08;0.77;;;;;;;-149.78;100.00;50545.75;5064256;28;20028;-62
2022/01/18 05:01:00;;;;;;;3.53;0.90;;;;;;;-149.78;100.00;50530.13;5063658;28;20033;-62
2022/01/18 05:03:30;;;;;;;3.20;0.98;;;;;;;-149.78;100.00;50532.06;5063675;28;20051;-62
2022/01/18 05:06:00;;;;;;;1.27;1.00;;;;;;;-149.78;100.00;50534.03;5064870;28;20039;-62
2022/01/18 05:08:26;;;;;;;3.15;0.98;;;;;;;-149.78;100.00;50526.22;5064235;28;20032;-62
2022/01/18 05:10:55;;;;;;;1.45;0.85;;;;;;;-149.78;100.00;50541.84;5064482;28;20024;-62
2022/01/18 05:23:35;;;;;;;2.55;0.90;;;;;;;-149.78;100.00;50510.56;5064944;28;20040;-62
2022/01/18 05:26:02;;;;;;;1.40;0.80;;;;;;;-149.78;100.00;50516.44;5046610;28;20727;-62
2022/01/18 05:28:28;;;;;;;2.95;0.80;;;;;;;-149.78;100.00;50514.47;5064413;28;20028;-62
2022/01/18 05:30:53;;;;;;;3.78;1.00;;;;;;;-149.78;100.00;50534.03;5067894;28;20033;-62
2022/01/18 05:33:21;;;;;;;3.53;1.17;;;;;;;-149.78;100.00;50520.34;5063784;28;20044;-62
2022/01/18 05:35:47;;;;;;;4.82;1.10;;;;;;;-149.78;100.00;50526.22;5048533;28;20036;-62
2022/01/18 05:38:14;;;;;;;4.07;1.23;;;;;;;-149.78;100.00;50541.84;5064883;28;20123;-62
2022/01/18 05:40:39;;;;;;;3.22;0.98;;;;;;;-149.78;100.00;50530.13;5064389;28;20090;-62
2022/01/18 05:43:05;;;;;;;3.35;1.27;;;;;;;-149.78;100.00;50506.66;5065404;28;20388;-62
2022/01/18 05:45:31;;;;;;;4.00;1.23;;;;;;;-149.78;100.00;50534.03;5065836;28;20127;-62
2022/01/18 05:47:57;;;;;;;7.35;2.67;;;;;;;-149.78;100.00;50498.81;5064941;28;20186;-62
2022/01/18 05:50:23;;;;;;;4.63;1.30;;;;;;;-149.78;100.00;50563.38;5065209;28;20032;-62
2022/01/18 05:52:48;;;;;;;4.45;1.23;;;;;;;-149.78;100.00;50537.94;5065428;28;20033;-62
2022/01/18 05:55:15;;;;;;;4.60;1.25;;;;;;;-149.78;100.00;50537.94;5065867;28;20088;-62
2022/01/18 05:57:40;;;;;;;4.82;0.98;;;;;;;-149.78;100.00;50526.22;5064247;28;20036;-62
2022/01/18 06:00:10;;;;;;;4.07;1.17;;;;;;;-149.78;100.00;50555.53;5064154;28;20048;-62
2022/01/18 06:02:48;;;;;;;8.07;1.10;;;;;;;-149.78;100.00;50549.69;5063627;28;20062;-62
2022/01/18 06:07:58;;;;;;;2.88;1.13;;;;;;;-149.78;100.00;50522.28;5064772;28;20352;-62
2022/01/18 06:10:24;;;;;;;1.88;0.85;;;;;;;-149.78;100.00;50514.47;5054587;28;20115;-62
2022/01/18 06:12:50;;;;;;;3.50;1.20;;;;;;;-149.78;100.00;50522.28;5054767;28;20102;-62
2022/01/18 06:15:16;;;;;;;2.22;1.10;;;;;;;-149.78;100.00;50498.81;5072234;28;20036;-61
2022/01/18 06:17:42;;;;;;;4.78;1.20;;;;;;;-149.78;100.00;50534.03;5063940;28;20036;-62
2022/01/18 06:20:08;;;;;;;4.90;0.90;;;;;;;-149.78;100.00;50518.38;5063804;28;20032;-62
2022/01/18 06:22:34;;;;;;;3.17;0.88;;;;;;;-149.78;100.00;50541.84;5063801;28;20410;-62
2022/01/18 06:25:00;;;;;;;3.05;0.85;;;;;;;-149.78;100.00;50514.47;5063701;28;20024;-62
2022/01/18 06:27:25;;;;;;;4.97;1.05;;;;;;;-149.78;100.00;50565.31;5063538;28;20500;-62
2022/01/18 06:29:52;;;;;;;4.82;0.80;;;;;;;-149.78;100.00;50506.66;5063640;28;20036;-61
2022/01/18 06:32:18;;;;;;;6.70;1.08;;;;;;;-149.78;100.00;50471.44;5061569;28;20476;-61
2022/01/18 06:34:44;;;;;;;3.67;1.00;;;;;;;-149.78;100.00;50514.47;5062322;28;20028;-62
2022/01/18 06:37:10;;;;;;;3.20;1.02;;;;;;;-149.78;100.00;50522.28;5063911;28;20047;-62
2022/01/18 06:39:37;;;;;;;1.15;0.73;;;;;;;-149.78;100.00;50506.66;5065556;28;20056;-62
2022/01/18 06:42:03;;;;;;;4.15;1.20;;;;;;;-149.78;100.00;50479.28;5065604;28;20547;-62
2022/01/18 06:44:29;;;;;;;5.78;1.00;;;;;;;-149.78;100.00;50477.31;5047144;28;20131;-62
2022/01/18 06:46:55;;;;;;;3.05;0.80;;;;;;;-149.78;100.00;50530.13;5046126;28;20123;-61
2022/01/18 06:49:21;;;;;;;4.60;2.15;;;;;;;-149.78;99.11;50518.38;5064702;28;20033;-62
2022/01/18 06:51:47;;;;;;;5.60;0.90;;;;;;;-149.78;98.21;50469.50;5062924;28;20032;-62
2022/01/18 06:54:16;;;;;;;2.50;0.82;;;;;;;-149.78;97.65;50471.44;5062730;28;20471;-61
2022/01/18 06:56:45;;;;;;;2.85;1.10;;;;;;;-149.78;95.47;50537.94;5063424;28;20078;-61
2022/01/18 06:59:11;;;;;;;2.60;1.00;;;;;;;-149.78;93.75;50518.38;5064944;28;20039;-61
2022/01/18 07:01:38;;;;;;;1.92;0.88;;;;;;;-149.78;93.15;50498.81;5063473;28;20033;-62
2022/01/18 07:04:04;;;;;;;2.55;0.82;;;;;;;-149.78;93.14;50506.66;5065313;28;20572;-62
2022/01/18 07:06:29;;;;;;;7.32;1.08;;;;;;;-149.78;92.27;50487.09;5063922;28;20049;-62
2022/01/18 07:08:55;;;;;;;3.17;0.80;;;;;;;-149.78;91.93;50494.91;5045063;28;20041;-62
2022/01/18 07:11:21;;;;;;;3.78;0.90;;;;;;;-149.78;91.85;50545.75;5062793;28;20044;-62
2022/01/18 07:13:46;;;;;;;6.72;1.02;;;;;;;-149.78;91.87;50498.81;5059787;28;20032;-62
2022/01/18 07:16:12;;;;;;;3.13;0.88;;;;;;;-149.78;91.31;50498.81;5058896;28;20495;-63
2022/01/18 07:18:38;;;;;;;2.80;0.80;;;;;;;-149.78;91.87;50494.91;5064625;28;20482;-62
2022/01/18 07:21:04;;;;;;;4.38;1.00;;;;;;;-149.78;91.92;50514.47;5063461;28;20047;-62
2022/01/18 07:23:30;;;;;;;2.97;0.95;;;;;;;-149.78;91.63;50491.00;5064732;28;20028;-62
2022/01/18 07:25:56;;;;;;;8.63;1.10;;;;;;;-149.78;92.21;50532.06;5063165;28;20036;-61
2022/01/18 07:28:22;;;;;;;3.17;0.90;;;;;;;-149.78;92.53;50502.75;5062905;28;20391;-61
2022/01/18 07:30:49;;;;;;;7.53;1.00;;;;;;;-149.78;93.49;50475.34;5065763;28;20036;-62
2022/01/18 07:33:16;;;;;;;4.13;1.33;;;;;;;-149.78;93.90;50502.75;5064940;28;20056;-60
2022/01/18 07:35:42;;;;;;;2.83;0.90;;;;;;;-149.78;93.55;50467.53;5064341;28;20054;-61
2022/01/18 07:38:12;;;;;;;6.15;1.05;;;;;;;-149.78;93.21;50485.13;5046546;28;20052;-61
2022/01/18 07:40:41;;;;;;;4.45;1.00;;;;;;;-149.78;94.86;50526.22;5046858;28;20123;-61
2022/01/18 07:43:08;;;;;;;4.18;1.00;;;;;;;-149.78;95.15;50518.38;5065582;28;20097;-61
2022/01/18 07:45:34;;;;;;;2.60;1.10;;;;;;;-149.78;94.74;50487.09;5066379;28;20036;-61
2022/01/18 07:48:00;;;;;;;4.78;1.00;;;;;;;-149.78;94.48;50483.19;5064392;28;20033;-62
2022/01/18 07:50:26;;;;;;;4.88;0.88;;;;;;;-149.78;94.32;50479.28;5064679;28;20064;-61
2022/01/18 07:52:52;;;;;;;6.82;0.90;;;;;;;-149.78;95.02;50518.38;5045806;28;20047;-62
2022/01/18 07:55:18;;;;;;;1.05;0.80;;;;;;;-149.78;95.79;50485.13;5045165;28;20037;-62
2022/01/18 07:57:44;;;;;;;2.45;0.90;;;;;;;-149.78;94.86;50494.91;5061798;28;21262;-62
2022/01/18 08:00:11;;;;;;;8.45;1.00;;;;;;;-149.78;95.89;50506.66;5043786;28;20179;-61
2022/01/18 08:02:37;;;;;;;2.55;1.08;;;;;;;-149.78;95.06;50487.09;5062284;28;20028;-62
2022/01/18 08:05:07;;;;;;;6.63;1.13;;;;;;;-149.78;95.58;50489.03;5066187;28;20045;-62
2022/01/18 08:07:33;;;;;;;2.85;0.88;;;;;;;-149.78;95.66;50491.00;5066677;28;20101;-63
2022/01/18 08:09:59;;;;;;;4.57;1.25;;;;;;;-149.78;97.72;50451.88;5061295;28;20467;-62
2022/01/18 08:12:24;;;;;;;3.83;0.93;;;;;;;-149.78;96.76;50479.28;5062911;28;20054;-63
2022/01/18 08:14:54;;;;;;;8.73;1.48;;;;;;;-149.78;96.63;50526.22;5061273;28;20059;-63
2022/01/18 08:17:20;;;;;;;5.30;0.60;;;;;;;-149.78;97.07;50487.09;5063984;28;20044;-63
2022/01/18 08:19:45;;;;;;;2.47;0.75;;;;;;;-149.78;97.91;50465.56;5061285;28;20075;-63
2022/01/18 08:22:11;;;;;;;4.53;1.00;;;;;;;-149.78;98.41;50512.50;5062493;28;20117;-63
2022/01/18 08:24:38;;;;;;;4.15;1.05;;;;;;;-149.78;98.93;50487.09;5046570;28;20028;-63
2022/01/18 08:27:04;;;;;;;5.57;0.88;;;;;;;-149.78;98.57;50491.00;5062656;28;20056;-64
2022/01/18 08:29:30;;;;;;;7.38;1.15;;;;;;;-149.78;98.45;50483.19;5061775;28;20047;-61
2022/01/18 08:31:56;;;;;;;5.35;0.93;;;;;;;-149.78;98.35;50492.97;5061057;28;20032;-61
2022/01/18 08:34:22;;;;;;;6.95;1.20;;;;;;;-149.78;97.98;50487.09;5064009;28;20390;-63
2022/01/18 08:36:48;;;;;;;2.97;1.02;;;;;;;-149.78;97.25;50451.88;5061966;28;20093;-62
2022/01/18 08:39:14;;;;;;;8.25;1.17;;;;;;;-149.78;98.05;50483.19;5063928;28;20396;-62
2022/01/18 08:41:40;;;;;;;3.15;0.93;;;;;;;-149.78;97.11;50453.84;5062596;28;20036;-62
2022/01/18 08:44:06;;;;;;;6.60;0.98;;;;;;;-149.78;97.58;50502.75;5064129;28;20462;-62
2022/01/18 08:46:33;;;;;;;3.70;0.98;;;;;;;-149.78;98.06;50483.19;5058989;28;20915;-62
2022/01/18 08:48:59;;;;;;;5.18;0.80;;;;;;;-149.78;98.58;50487.09;5062095;28;20047;-62
2022/01/18 08:51:27;;;;;;;5.13;1.00;;;;;;;-149.78;97.72;50485.13;5060586;28;20086;-62
2022/01/18 08:53:53;;;;;;;3.13;1.00;;;;;;;-149.78;98.86;50473.41;5062658;28;20031;-62
2022/01/18 08:56:20;;;;;;;3.95;0.88;;;;;;;-149.78;98.42;50467.53;5061997;28;20446;-63
2022/01/18 08:58:47;;;;;;;4.43;0.93;;;;;;;-149.78;97.95;50459.72;5061355;28;20479;-63
2022/01/18 09:01:14;;;;;;;2.95;1.02;;;;;;;-149.78;99.22;50463.63;5060352;28;20040;-63
2022/01/18 09:03:40;;;;;;;4.35;1.10;;;;;;;-149.78;100.00;50485.13;5060938;28;20032;-63
2022/01/18 09:06:07;;;;;;;3.63;0.90;;;;;;;-149.78;100.00;50463.63;5060123;28;20033;-62
2022/01/18 09:08:37;;;;;;;3.05;1.00;;;;;;;-149.78;100.00;50512.50;5060618;28;20125;-62
2022/01/18 09:11:03;;;;;;;6.97;1.10;;;;;;;-149.78;100.00;50479.28;5059491;28;20052;-62
2022/01/18 09:13:31;;;;;;;6.75;1.52;;;;;;;-149.78;100.00;50498.81;5059288;28;20066;-62
2022/01/18 09:15:57;;;;;;;5.20;1.10;;;;;;;-149.78;100.00;50487.09;5060636;28;20047;-62
2022/01/18 09:18:22;;;;;;;3.08;1.05;;;;;;;-149.78;100.00;50498.81;5059560;28;20045;-62
2022/01/18 09:20:48;;;;;;;4.85;0.98;;;;;;;-149.78;100.00;50514.47;5060041;28;20035;-63
2022/01/18 09:23:14;;;;;;;4.15;1.20;;;;;;;-149.78;100.00;50473.41;5058955;28;20541;-63
2022/01/18 09:25:40;;;;;;;8.77;1.35;;;;;;;-149.78;100.00;50498.81;5061206;28;20139;-63
2022/01/18 09:28:06;;;;;;;5.85;0.90;;;;;;;-149.78;100.00;50502.75;5062043;28;20041;-63
2022/01/18 09:30:34;;;;;;;4.18;1.23;;;;;;;-149.78;100.00;50498.81;5057841;28;20090;-63
2022/01/18 09:33:04;;;;;;;5.60;1.20;;;;;;;-149.78;100.00;50459.72;5057158;28;20131;-64
2022/01/18 09:35:29;;;;;;;3.42;1.15;;;;;;;-149.78;100.00;50475.34;5061506;28;20047;-63
2022/01/18 09:37:55;;;;;;;3.72;1.10;;;;;;;-149.78;100.00;50483.19;5061368;28;20044;-64
2022/01/18 09:40:23;;;;;;;4.03;0.90;;;;;;;-149.78;100.00;50496.88;5057984;28;20678;-64
2022/01/18 09:42:53;;;;;;;5.13;0.90;;;;;;;-149.78;100.00;50475.34;5044036;28;20032;-64
2022/01/18 09:45:21;;;;;;;6.00;1.15;;;;;;;-149.78;100.00;50504.69;5042690;28;20483;-64
2022/01/18 09:47:48;;;;;;;5.40;1.10;;;;;;;-149.78;100.00;50449.94;5059731;28;20428;-64
2022/01/18 09:50:18;;;;;;;5.93;1.10;;;;;;;-149.78;100.00;50475.34;5060824;28;20031;-64
2022/01/18 09:52:47;;;;;;;4.07;1.00;;;;;;;-149.78;100.00;50483.19;5059544;28;20029;-64
2022/01/18 09:55:13;;;;;;;6.15;1.55;;;;;;;-149.78;100.00;50428.41;5059314;28;20034;-64
2022/01/18 09:57:39;;;;;;;4.13;1.00;;;;;;;-149.78;100.00;50502.75;5058379;28;20041;-64
2022/01/18 10:00:06;;;;;;;2.67;1.25;;;;;;;-149.78;100.00;50489.03;5043980;28;20036;-64
2022/01/18 10:02:31;;;;;;;2.78;1.30;;;;;;;-149.78;100.00;50461.66;5045137;28;20033;-64
2022/01/18 10:05:00;;;;;;;6.30;1.20;;;;;;;-149.78;100.00;50459.72;5063910;28;20158;-64
2022/01/18 10:07:33;;;;;;;4.78;1.20;;;;;;;-149.78;100.00;50491.00;5058571;28;20131;-64
2022/01/18 10:10:00;;;;;;;5.82;1.60;;;;;;;-149.78;100.00;50457.75;5062595;28;20752;-64
2022/01/18 10:12:26;;;;;;;3.83;1.15;;;;;;;-149.78;100.00;50475.34;5061333;28;20391;-64
2022/01/18 10:14:56;;;;;;;2.90;1.10;;;;;;;-149.78;100.00;50479.28;5064530;28;20037;-64
2022/01/18 10:17:40;;;;;;;7.72;1.65;;;;;;;-149.78;100.00;50469.50;5064706;28;20040;-64
2022/01/18 10:20:07;;;;;;;10.95;1.40;;;;;;;-149.78;100.00;50447.97;5066624;28;20472;-64
2022/01/18 10:22:40;;;;;;;3.38;1.27;;;;;;;-149.78;100.00;50479.28;5048395;28;20028;-64
2022/01/18 10:25:13;;;;;;;7.85;1.52;;;;;;;-149.78;100.00;50455.81;5048640;28;20040;-64
2022/01/18 10:27:39;;;;;;;4.13;1.45;;;;;;;-149.78;100.00;50471.44;5064167;28;20110;-64
2022/01/18 10:30:08;;;;;;;5.05;1.60;;;;;;;-149.78;100.00;50440.16;5064958;28;20079;-64
2022/01/18 10:32:39;;;;;;;6.93;1.50;;;;;;;-149.78;100.00;50436.25;5064194;28;20045;-64
2022/01/18 10:35:08;;;;;;;5.18;1.70;;;;;;;-149.78;100.00;50487.09;5042928;28;20040;-64
2022/01/18 10:37:35;;;;;;;4.43;1.60;;;;;;;-149.78;100.00;50440.16;5066307;28;20028;-64
2022/01/18 10:40:16;;;;;;;9.43;1.98;;;;;;;-149.78;100.00;50469.50;5067877;28;20055;-64
2022/01/18 10:42:49;;;;;;;10.75;1.70;;;;;;;-149.78;100.00;50444.06;5067701;28;20024;-64
2022/01/18 10:45:29;;;;;;;3.85;1.67;;;;;;;-149.78;100.00;50467.53;5067813;28;20034;-64
2022/01/18 10:47:59;;;;;;;4.93;1.60;;;;;;;-149.78;100.00;50440.16;5064761;28;20024;-64
2022/01/18 10:50:30;;;;;;;5.20;1.70;;;;;;;-149.78;100.00;50471.44;5029241;28;20036;-64
2022/01/18 10:53:19;;;;;;;9.55;1.48;;;;;;;-149.78;100.00;50438.19;5047451;28;20094;-64
2022/01/18 10:55:48;;;;;;;4.47;1.45;;;;;;;-149.78;100.00;50483.19;5065258;28;20464;-64
2022/01/18 10:58:20;;;;;;;5.78;1.70;;;;;;;-149.78;100.00;50428.41;5046621;28;20037;-64
2022/01/18 11:00:46;;;;;;;3.75;1.38;;;;;;;-149.78;100.00;50414.72;5032350;28;20119;-64
2022/01/18 11:03:12;;;;;;;5.90;1.60;;;;;;;-149.78;100.00;50440.16;5065922;28;20535;-64
2022/01/18 11:05:43;;;;;;;6.03;1.67;;;;;;;-149.78;100.00;50428.41;5066623;28;20033;-64
2022/01/18 11:08:09;;;;;;;5.15;1.42;;;;;;;-149.78;100.00;50455.81;5066925;28;20436;-64
2022/01/18 11:10:39;;;;;;;5.63;2.47;;;;;;;-149.78;100.00;50455.81;5066521;28;20040;-64
2022/01/18 11:13:10;;;;;;;2.25;1.35;;;;;;;-149.78;100.00;50418.63;5065700;28;20509;-64
2022/01/18 11:15:40;;;;;;;3.70;1.40;;;;;;;-149.78;100.00;50461.66;5066592;28;20024;-64
2022/01/18 11:18:14;;;;;;;8.23;1.50;;;;;;;-149.78;100.00;50455.81;5066562;28;20114;-64
2022/01/18 11:20:44;;;;;;;6.80;1.70;;;;;;;-149.78;100.00;50432.31;5066006;28;20033;-64
2022/01/18 11:23:11;;;;;;;9.13;1.85;;;;;;;-149.78;100.00;50463.63;5048416;28;20036;-64
2022/01/18 11:25:38;;;;;;;4.22;1.63;;;;;;;-149.78;100.00;50473.41;5047823;28;20089;-64
2022/01/18 11:28:06;;;;;;;4.75;1.75;;;;;;;-149.78;100.00;50475.34;5066476;28;20033;-64
2022/01/18 11:30:35;;;;;;;7.10;1.70;;;;;;;-149.78;100.00;50459.72;5064723;28;20036;-64
2022/01/18 11:33:05;;;;;;;4.65;1.58;;;;;;;-149.78;100.00;50475.34;5066258;28;20064;-64
2022/01/18 11:35:43;;;;;;;7.50;2.00;;;;;;;-149.78;100.00;50436.25;5066111;28;20044;-64
2022/01/18 11:38:14;;;;;;;7.28;1.70;;;;;;;-149.78;100.00;50455.81;5066427;28;20061;-64
2022/01/18 11:40:50;;;;;;;11.88;1.80;;;;;;;-149.78;100.00;50471.44;5064599;28;20110;-64
2022/01/18 11:43:32;;;;;;;5.03;1.60;;;;;;;-149.78;100.00;50449.94;5065946;28;20040;-64
2022/01/18 11:45:58;;;;;;;9.85;1.65;;;;;;;-149.78;100.00;50463.63;5066142;28;20024;-63
2022/01/18 11:48:25;;;;;;;3.13;1.77;;;;;;;-149.78;100.00;50428.41;5065871;28;20033;-64
2022/01/18 11:51:02;;;;;;;8.25;1.55;;;;;;;-149.78;100.00;50467.53;5065277;28;20033;-63
2022/01/18 11:54:05;;;;;;;6.35;1.75;;;;;;;-149.78;100.00;50401.03;5064349;28;20071;-63
2022/01/18 11:56:32;;;;;;;;;;;;;;;-149.78;100.00;50434.28;5064223;28;20029;-64
2022/01/18 11:59:17;;;;;;;6.30;1.48;;;;;;;-149.78;100.00;50438.19;5065429;28;19920;-63
2022/01/18 12:01:54;;;;;;;4.45;1.48;;;;;;;-149.78;100.00;50483.19;5064888;28;20032;-63
2022/01/18 12:07:11;;;;;;;6.05;1.58;;;;;;;-149.78;100.00;50467.53;5063554;28;20036;-63
2022/01/18 12:09:39;;;;;;;3.28;1.67;;;;;;;-149.78;100.00;50440.16;5065279;28;20032;-63
2022/01/18 12:12:25;;;;;;;5.22;1.33;;;;;;;-149.78;100.00;50434.28;5065469;28;20029;-64
2022/01/18 12:14:51;;;;;;;7.03;1.80;;;;;;;-149.78;100.00;50428.41;5065546;28;20028;-64
2022/01/18 12:17:17;;;;;;;8.98;1.85;;;;;;;-149.78;100.00;50440.16;5064345;28;20039;-64
2022/01/18 12:19:47;;;;;;;8.70;1.75;;;;;;;-149.78;100.00;50467.53;5065336;28;20032;-63
2022/01/18 12:22:13;;;;;;;9.18;2.03;;;;;;;-149.78;100.00;50440.16;5065370;28;20419;-63
2022/01/18 12:24:45;;;;;;;7.95;1.85;;;;;;;-149.78;100.00;50432.31;5030816;28;20060;-64
2022/01/18 12:27:32;;;;;;;9.20;2.30;;;;;;;-149.78;100.00;50420.59;5066438;28;20186;-63